Time;durP1;ratioP1;P1;durP2;ratioP2;P2;SDS_P1;SDS_P2;PMS_P1;PMS_P2;Temp;Humidity;BMP_temperature;BMP_pressure;BME280_temperature;BME280_humidity;BME280_pressure;Samples;Min_cycle;Max_cycle;Signal;HPM_P1;HPM_P2
2022/07/10 00:00:00;;;;;;;3.70;3.35;;;19.60;99.90;;;;;;5071214;28;20731;-58
2022/07/10 00:02:27;;;;;;;3.58;3.28;;;19.50;99.90;;;;;;5071505;28;20224;-58
2022/07/10 00:04:54;;;;;;;3.55;3.22;;;19.30;99.90;;;;;;5071395;28;20672;-59
2022/07/10 00:07:20;;;;;;;3.65;3.25;;;19.20;99.90;;;;;;5071315;28;20229;-59
2022/07/10 00:09:48;;;;;;;9.43;3.60;;;19.20;99.90;;;;;;5071376;28;20205;-58
2022/07/10 00:12:15;;;;;;;3.72;3.28;;;19.10;99.90;;;;;;5071261;28;20847;-58
2022/07/10 00:14:42;;;;;;;3.70;3.40;;;19.10;99.90;;;;;;5071480;28;20620;-59
2022/07/10 00:17:09;;;;;;;3.58;3.10;;;19.20;99.90;;;;;;5071670;28;20197;-59
2022/07/10 00:19:35;;;;;;;3.97;3.58;;;19.20;99.90;;;;;;5071252;28;20212;-58
2022/07/10 00:22:02;;;;;;;3.47;3.17;;;19.30;99.90;;;;;;5071582;28;20232;-59
2022/07/10 00:24:29;;;;;;;3.95;3.65;;;19.30;99.90;;;;;;5071328;28;20254;-59
2022/07/10 00:26:57;;;;;;;4.97;3.42;;;19.40;99.90;;;;;;5071190;28;20225;-58
2022/07/10 00:29:24;;;;;;;3.83;3.42;;;19.40;99.90;;;;;;5072478;28;20665;-58
2022/07/10 00:31:50;;;;;;;3.75;3.45;;;19.40;99.90;;;;;;5074919;28;20220;-58
2022/07/10 00:34:17;;;;;;;3.60;3.30;;;19.40;99.90;;;;;;5074593;28;20239;-58
2022/07/10 00:36:44;;;;;;;3.83;3.53;;;19.40;99.90;;;;;;5074928;28;20300;-58
2022/07/10 00:39:11;;;;;;;5.18;3.67;;;19.40;99.90;;;;;;5074697;28;20234;-58
2022/07/10 00:41:37;;;;;;;5.10;3.45;;;19.30;99.90;;;;;;5074473;28;20205;-58
2022/07/10 00:44:06;;;;;;;4.22;3.90;;;19.30;99.90;;;;;;5074488;28;20622;-58
2022/07/10 00:46:33;;;;;;;4.95;4.18;;;19.20;99.90;;;;;;5074433;28;20225;-58
2022/07/10 00:49:00;;;;;;;6.32;4.20;;;19.10;99.90;;;;;;5074363;28;20215;-58
2022/07/10 00:51:28;;;;;;;8.45;4.18;;;19.00;99.90;;;;;;5075238;28;20254;-58
2022/07/10 00:53:56;;;;;;;4.88;4.47;;;18.90;99.90;;;;;;5075267;28;20244;-58
2022/07/10 00:56:25;;;;;;;7.18;4.25;;;18.90;99.90;;;;;;5075190;28;20201;-59
2022/07/10 00:58:52;;;;;;;6.20;4.72;;;18.80;99.90;;;;;;5074305;28;20623;-58
2022/07/10 01:01:22;;;;;;;8.43;4.45;;;18.70;99.90;;;;;;5073902;28;20205;-58
2022/07/10 01:03:49;;;;;;;6.22;4.85;;;18.70;99.90;;;;;;5074372;28;20822;-58
2022/07/10 01:06:17;;;;;;;5.75;4.90;;;18.70;99.90;;;;;;5074433;28;20225;-59
2022/07/10 01:08:45;;;;;;;8.20;4.72;;;18.60;99.90;;;;;;5074340;28;20201;-59
2022/07/10 01:11:13;;;;;;;5.68;4.78;;;18.60;99.90;;;;;;5073963;28;20213;-59
2022/07/10 01:13:40;;;;;;;6.22;4.72;;;18.70;99.90;;;;;;5074105;28;20221;-59
2022/07/10 01:16:07;;;;;;;5.60;4.97;;;18.70;99.90;;;;;;5074202;28;20476;-58
2022/07/10 01:18:35;;;;;;;6.07;5.30;;;18.70;99.90;;;;;;5073959;28;20582;-58
2022/07/10 01:21:03;;;;;;;6.05;5.22;;;18.70;99.90;;;;;;5073886;28;20212;-58
2022/07/10 01:23:30;;;;;;;7.65;5.15;;;18.60;99.90;;;;;;5074156;28;20224;-56
2022/07/10 01:25:57;;;;;;;8.18;5.70;;;18.60;99.90;;;;;;5073725;28;20209;-57
2022/07/10 01:28:23;;;;;;;5.82;5.32;;;18.50;99.90;;;;;;5074018;28;20201;-59
2022/07/10 01:30:50;;;;;;;6.03;5.38;;;18.60;99.90;;;;;;5073634;28;20749;-57
2022/07/10 01:33:17;;;;;;;7.50;5.82;;;18.50;99.90;;;;;;5073702;28;20228;-56
2022/07/10 01:35:44;;;;;;;6.85;5.85;;;18.50;99.90;;;;;;5073560;28;20205;-57
2022/07/10 01:38:12;;;;;;;6.43;5.57;;;18.40;99.90;;;;;;5073569;28;20201;-56
2022/07/10 01:40:39;;;;;;;7.38;5.85;;;18.30;99.90;;;;;;5073238;28;20213;-57
2022/07/10 01:43:05;;;;;;;6.88;5.53;;;18.20;99.90;;;;;;5073368;28;20290;-57
2022/07/10 01:45:33;;;;;;;7.47;5.57;;;18.10;99.90;;;;;;5073815;28;20213;-57
2022/07/10 01:48:00;;;;;;;7.72;6.00;;;18.10;99.90;;;;;;5073247;28;20220;-57
2022/07/10 01:50:27;;;;;;;8.18;6.00;;;18.00;99.90;;;;;;5073392;28;20216;-56
2022/07/10 01:52:53;;;;;;;7.63;5.55;;;18.00;99.90;;;;;;5073144;28;20708;-56
2022/07/10 01:55:21;;;;;;;5.95;5.40;;;18.00;99.90;;;;;;5073257;28;20205;-56
2022/07/10 01:57:48;;;;;;;6.43;5.43;;;17.90;99.90;;;;;;5073313;28;20255;-56
2022/07/10 02:00:15;;;;;;;8.13;5.70;;;17.90;99.90;;;;;;5073081;28;20200;-56
2022/07/10 02:04:40;;;;;;;10.07;4.90;;;17.90;99.90;;;;;;5073073;28;20236;-56
2022/07/10 02:05:27;;;;;;;6.35;5.10;;;17.90;99.90;;;;;;5072710;28;20201;-56
2022/07/10 02:07:54;;;;;;;7.22;4.68;;;17.90;99.90;;;;;;5072733;28;20216;-56
2022/07/10 02:10:22;;;;;;;5.28;4.78;;;17.90;99.90;;;;;;5072709;28;20201;-56
2022/07/10 02:12:49;;;;;;;9.10;5.00;;;17.80;99.90;;;;;;5072960;28;20699;-56
2022/07/10 02:15:16;;;;;;;5.70;4.45;;;17.80;99.90;;;;;;5072808;28;20687;-56
2022/07/10 02:17:42;;;;;;;7.85;4.82;;;17.80;99.90;;;;;;5072840;28;20203;-56
2022/07/10 02:20:10;;;;;;;5.45;4.82;;;17.70;99.90;;;;;;5072480;28;20236;-56
2022/07/10 02:22:37;;;;;;;6.03;5.03;;;17.70;99.90;;;;;;5072692;28;20240;-56
2022/07/10 02:25:04;;;;;;;5.93;5.15;;;17.60;99.90;;;;;;5072942;28;20228;-57
2022/07/10 02:27:33;;;;;;;8.40;5.43;;;17.60;99.90;;;;;;5072671;28;20279;-56
2022/07/10 02:29:59;;;;;;;6.40;5.00;;;17.60;99.90;;;;;;5072396;28;20208;-56
2022/07/10 02:32:26;;;;;;;7.78;4.88;;;17.60;99.90;;;;;;5072469;28;20750;-56
2022/07/10 02:34:53;;;;;;;8.60;5.30;;;17.60;99.90;;;;;;5072767;28;20220;-56
2022/07/10 02:37:20;;;;;;;7.25;4.25;;;17.60;99.90;;;;;;5073553;28;20265;-56
2022/07/10 02:39:46;;;;;;;5.45;4.90;;;17.60;99.90;;;;;;5072931;28;20680;-56
2022/07/10 02:42:13;;;;;;;5.72;4.63;;;17.60;99.90;;;;;;5072271;28;20282;-56
2022/07/10 02:44:41;;;;;;;6.40;5.35;;;17.50;99.90;;;;;;5072448;28;20212;-57
2022/07/10 02:47:07;;;;;;;5.57;4.70;;;17.50;99.90;;;;;;5072084;28;20227;-58
2022/07/10 02:49:34;;;;;;;8.50;5.18;;;17.40;99.90;;;;;;5072127;28;20242;-57
2022/07/10 02:52:01;;;;;;;7.97;5.15;;;17.40;99.90;;;;;;5071761;28;20233;-57
2022/07/10 02:54:27;;;;;;;7.15;5.72;;;17.30;99.90;;;;;;5072509;28;20204;-58
2022/07/10 02:56:54;;;;;;;7.03;5.20;;;17.30;99.90;;;;;;5072356;28;20197;-57
2022/07/10 02:59:21;;;;;;;6.63;5.72;;;17.20;99.90;;;;;;5072173;28;20200;-58
2022/07/10 03:01:49;;;;;;;6.28;5.38;;;17.10;99.90;;;;;;5072004;28;20228;-57
2022/07/10 03:04:15;;;;;;;10.45;5.78;;;17.00;99.90;;;;;;5072094;28;20414;-57
2022/07/10 03:06:42;;;;;;;8.40;5.35;;;17.10;99.90;;;;;;5072334;28;20246;-57
2022/07/10 03:09:09;;;;;;;7.78;5.78;;;17.00;99.90;;;;;;5072272;28;20204;-57
2022/07/10 03:11:36;;;;;;;8.93;5.80;;;16.90;99.90;;;;;;5071720;28;20643;-58
2022/07/10 03:14:02;;;;;;;9.52;5.80;;;16.90;99.90;;;;;;5072321;28;20209;-58
2022/07/10 03:16:29;;;;;;;8.00;5.35;;;16.80;99.90;;;;;;5071983;28;20209;-57
2022/07/10 03:18:57;;;;;;;8.00;6.20;;;16.80;99.90;;;;;;5071952;28;20216;-57
2022/07/10 03:21:24;;;;;;;7.80;5.70;;;16.70;99.90;;;;;;5071753;28;20212;-57
2022/07/10 03:23:51;;;;;;;9.30;5.57;;;16.70;99.90;;;;;;5072208;28;20239;-57
2022/07/10 03:26:17;;;;;;;7.70;5.90;;;16.70;99.90;;;;;;5071989;28;20248;-57
2022/07/10 03:28:44;;;;;;;8.20;5.57;;;16.60;99.90;;;;;;5071917;28;20208;-57
2022/07/10 03:31:10;;;;;;;8.23;5.80;;;16.60;99.90;;;;;;5071399;28;20707;-57
2022/07/10 03:33:38;;;;;;;6.88;5.65;;;16.60;99.90;;;;;;5071855;28;20284;-57
2022/07/10 03:36:07;;;;;;;11.77;5.13;;;16.70;99.90;;;;;;5071689;28;20580;-57
2022/07/10 03:38:34;;;;;;;10.50;5.72;;;16.70;99.90;;;;;;5071915;28;20201;-56
2022/07/10 03:41:00;;;;;;;11.10;5.33;;;16.80;99.90;;;;;;5071610;28;20232;-56
2022/07/10 03:43:27;;;;;;;8.77;6.03;;;16.80;99.90;;;;;;5072229;28;20239;-56
2022/07/10 03:45:54;;;;;;;7.80;5.28;;;16.80;99.90;;;;;;5071722;28;20238;-57
2022/07/10 03:48:20;;;;;;;7.03;4.97;;;16.80;99.90;;;;;;5071942;28;20225;-57
2022/07/10 03:50:50;;;;;;;5.65;5.15;;;16.80;99.90;;;;;;5071592;28;20214;-57
2022/07/10 03:53:18;;;;;;;6.32;4.95;;;16.80;99.90;;;;;;5071778;28;20229;-56
2022/07/10 03:55:46;;;;;;;9.25;5.50;;;16.80;99.90;;;;;;5071883;28;20618;-57
2022/07/10 03:58:12;;;;;;;6.45;5.03;;;16.80;99.90;;;;;;5071568;28;20201;-57
2022/07/10 04:00:40;;;;;;;8.95;5.40;;;16.80;99.90;;;;;;5071589;28;20204;-57
2022/07/10 04:03:08;;;;;;;5.18;4.68;;;16.90;99.90;;;;;;5071801;28;20282;-57
2022/07/10 04:05:35;;;;;;;5.40;4.90;;;17.10;99.90;;;;;;5074933;28;20205;-57
2022/07/10 04:08:03;;;;;;;6.15;4.88;;;17.20;99.90;;;;;;5075179;28;20225;-57
2022/07/10 04:10:32;;;;;;;6.97;4.68;;;17.30;99.90;;;;;;5074972;28;20201;-57
2022/07/10 04:12:59;;;;;;;6.37;4.90;;;17.30;99.90;;;;;;5075404;28;20708;-57
2022/07/10 04:15:26;;;;;;;6.00;4.15;;;17.40;99.90;;;;;;5075326;28;20212;-57
2022/07/10 04:17:53;;;;;;;5.97;4.05;;;17.50;99.90;;;;;;5075569;28;20212;-57
2022/07/10 04:20:21;;;;;;;6.93;4.68;;;17.50;99.90;;;;;;5076228;28;20258;-57
2022/07/10 04:22:48;;;;;;;6.72;4.38;;;17.60;99.90;;;;;;5075809;28;20307;-57
2022/07/10 04:25:15;;;;;;;7.03;4.28;;;17.70;99.90;;;;;;5075009;28;20209;-58
2022/07/10 04:27:43;;;;;;;7.07;3.70;;;17.60;99.90;;;;;;5074827;28;20229;-57
2022/07/10 04:30:11;;;;;;;4.80;4.28;;;17.40;99.90;;;;;;5074853;28;20205;-56
2022/07/10 04:32:37;;;;;;;4.45;3.97;;;17.50;99.90;;;;;;5074966;28;20236;-57
2022/07/10 04:35:05;;;;;;;11.80;4.95;;;17.60;99.90;;;;;;5074875;28;20232;-57
2022/07/10 04:37:34;;;;;;;4.85;4.20;;;17.70;99.90;;;;;;5074941;28;20212;-56
2022/07/10 04:40:01;;;;;;;5.40;3.13;;;17.80;99.90;;;;;;5074542;28;20235;-57
2022/07/10 04:42:27;;;;;;;6.10;3.63;;;17.80;99.90;;;;;;5074579;28;20623;-57
2022/07/10 04:44:56;;;;;;;5.38;3.88;;;17.80;99.90;;;;;;5074846;28;20350;-57
2022/07/10 04:47:22;;;;;;;4.38;3.50;;;17.90;99.90;;;;;;5074811;28;20234;-57
2022/07/10 04:49:49;;;;;;;3.83;3.47;;;18.00;99.90;;;;;;5074793;28;20236;-56
2022/07/10 04:52:16;;;;;;;4.82;3.33;;;18.10;99.90;;;;;;5074901;28;20225;-57
2022/07/10 04:54:42;;;;;;;4.50;3.47;;;18.10;99.90;;;;;;5074338;28;20243;-57
2022/07/10 04:57:09;;;;;;;3.78;3.25;;;18.10;99.90;;;;;;5074715;28;20207;-57
2022/07/10 04:59:36;;;;;;;4.40;3.40;;;18.00;99.90;;;;;;5074429;28;20209;-57
2022/07/10 05:02:04;;;;;;;5.55;3.38;;;17.80;99.90;;;;;;5074162;28;20229;-57
2022/07/10 05:04:31;;;;;;;6.20;3.72;;;17.70;99.90;;;;;;5074364;28;20620;-57
2022/07/10 05:06:58;;;;;;;4.35;3.30;;;17.80;99.90;;;;;;5074043;28;20266;-56
2022/07/10 05:09:24;;;;;;;3.78;3.08;;;17.90;99.90;;;;;;5074372;28;20265;-57
2022/07/10 05:11:51;;;;;;;3.58;3.03;;;17.90;99.90;;;;;;5074002;28;20228;-57
2022/07/10 05:14:18;;;;;;;4.15;3.03;;;18.00;99.90;;;;;;5074219;28;20320;-57
2022/07/10 05:16:45;;;;;;;3.28;2.83;;;18.00;99.90;;;;;;5073676;28;20209;-57
2022/07/10 05:19:13;;;;;;;4.72;3.53;;;18.10;99.90;;;;;;5074068;28;20303;-57
2022/07/10 05:21:40;;;;;;;3.30;3.00;;;18.40;99.90;;;;;;5073573;28;20205;-57
2022/07/10 05:24:07;;;;;;;3.72;3.35;;;18.60;99.90;;;;;;5074422;28;20212;-57
2022/07/10 05:26:33;;;;;;;3.83;3.35;;;18.60;99.90;;;;;;5074157;28;20212;-56
2022/07/10 05:29:00;;;;;;;5.28;3.42;;;18.40;99.90;;;;;;5074047;28;20229;-57
2022/07/10 05:31:27;;;;;;;4.13;3.30;;;18.50;99.90;;;;;;5073744;28;20219;-57
2022/07/10 05:33:53;;;;;;;2.88;2.33;;;19.00;99.90;;;;;;5073828;28;20208;-57
2022/07/10 05:36:21;;;;;;;6.10;2.90;;;20.10;99.90;;;;;;5073538;28;20580;-57
2022/07/10 05:38:48;;;;;;;6.65;3.90;;;20.70;99.90;;;;;;5073752;28;20576;-57
2022/07/10 05:41:15;;;;;;;3.42;2.63;;;20.50;99.90;;;;;;5073491;28;20212;-57
2022/07/10 05:43:43;;;;;;;4.10;2.90;;;20.30;99.90;;;;;;5073723;28;20239;-57
2022/07/10 05:46:09;;;;;;;2.92;2.60;;;20.30;99.90;;;;;;5073705;28;20218;-57
2022/07/10 05:48:38;;;;;;;6.75;2.92;;;20.10;99.90;;;;;;5073252;28;20294;-58
2022/07/10 05:51:05;;;;;;;6.65;2.88;;;19.90;99.90;;;;;;5073533;28;20219;-57
2022/07/10 05:53:33;;;;;;;5.28;2.63;;;19.70;99.90;;;;;;5073171;28;20722;-57
2022/07/10 05:56:01;;;;;;;5.32;3.08;;;19.50;99.90;;;;;;5073438;28;20216;-57
2022/07/10 05:58:28;;;;;;;3.28;2.47;;;20.10;99.90;;;;;;5073636;28;20291;-57
2022/07/10 06:00:54;;;;;;;3.42;2.20;;;20.90;99.90;;;;;;5073239;28;20205;-62
2022/07/10 06:03:21;;;;;;;3.30;2.05;;;21.60;99.90;;;;;;5074216;28;20229;-56
2022/07/10 06:05:48;;;;;;;3.75;2.10;;;22.60;99.90;;;;;;5074227;28;20211;-56
2022/07/10 06:08:14;;;;;;;2.45;1.67;;;23.60;99.90;;;;;;5073665;28;20227;-57
2022/07/10 06:10:44;;;;;;;3.60;1.75;;;24.40;99.90;;;;;;5076210;28;20229;-66
2022/07/10 06:13:11;;;;;;;3.78;2.00;;;25.40;99.90;;;;;;5075744;28;20285;-65
2022/07/10 06:15:37;;;;;;;3.42;1.75;;;26.00;99.90;;;;;;5075084;28;20216;-64
2022/07/10 06:18:04;;;;;;;5.38;1.63;;;26.90;99.70;;;;;;5074893;28;20608;-63
2022/07/10 06:20:31;;;;;;;2.50;1.50;;;27.20;97.40;;;;;;5074232;28;20201;-62
2022/07/10 06:22:58;;;;;;;2.65;1.80;;;27.00;97.00;;;;;;5074216;28;20290;-61
2022/07/10 06:25:25;;;;;;;5.65;1.83;;;26.30;97.20;;;;;;5075767;28;20204;-61
2022/07/10 06:27:53;;;;;;;3.90;1.80;;;26.40;96.50;;;;;;5073930;28;20286;-62
2022/07/10 06:30:20;;;;;;;3.10;1.30;;;26.20;96.30;;;;;;5073656;28;20269;-62
2022/07/10 06:32:46;;;;;;;3.22;1.52;;;26.50;95.80;;;;;;5074422;28;20654;-61
2022/07/10 06:35:13;;;;;;;2.90;1.50;;;27.40;94.40;;;;;;5074346;28;20212;-62
2022/07/10 06:37:40;;;;;;;5.30;1.52;;;29.00;91.00;;;;;;5074696;28;20205;-62
2022/07/10 06:40:08;;;;;;;2.72;1.35;;;30.40;80.70;;;;;;5074542;28;20319;-62
2022/07/10 06:42:35;;;;;;;3.20;1.50;;;30.00;78.40;;;;;;5073944;28;20262;-61
2022/07/10 06:45:03;;;;;;;3.85;1.58;;;28.20;82.70;;;;;;5074594;28;20220;-62
2022/07/10 06:50:14;;;;;;;6.15;1.40;;;25.30;90.20;;;;;;5074397;28;20266;-62
2022/07/10 06:52:41;;;;;;;2.13;1.27;;;24.10;91.70;;;;;;5074408;28;20286;-59
2022/07/10 06:55:08;;;;;;;5.72;1.40;;;23.20;92.20;;;;;;5072609;28;20683;-60
2022/07/10 06:57:35;;;;;;;2.88;1.23;;;22.40;94.70;;;;;;5072470;28;20209;-59
2022/07/10 07:00:04;;;;;;;5.32;1.40;;;22.00;95.80;;;;;;5072513;28;20204;-59
2022/07/10 07:02:31;;;;;;;5.05;1.30;;;21.70;96.40;;;;;;5072348;28;20220;-58
2022/07/10 07:04:57;;;;;;;2.78;1.05;;;21.80;95.90;;;;;;5071986;28;20215;-59
2022/07/10 07:07:24;;;;;;;4.20;1.30;;;21.80;96.20;;;;;;5072243;28;20224;-59
2022/07/10 07:09:51;;;;;;;1.90;1.00;;;22.80;94.40;;;;;;5071817;28;20754;-59
2022/07/10 07:12:18;;;;;;;3.80;1.02;;;24.70;92.20;;;;;;5072070;28;20232;-59
2022/07/10 07:14:45;;;;;;;2.60;1.08;;;26.30;86.80;;;;;;5072304;28;20640;-59
2022/07/10 07:17:14;;;;;;;4.75;0.90;;;26.60;82.30;;;;;;5072612;28;20207;-59
2022/07/10 07:25:11;;;;;;;4.78;1.20;;;24.30;86.00;;;;;;5071917;28;20204;-60
2022/07/10 07:27:39;;;;;;;5.90;1.42;;;23.40;89.40;;;;;;5071770;28;20200;-59
2022/07/10 07:30:07;;;;;;;3.92;1.25;;;22.60;91.30;;;;;;5071928;28;20231;-58
2022/07/10 07:32:35;;;;;;;1.98;1.27;;;22.20;92.30;;;;;;5071686;28;20235;-59
2022/07/10 07:35:03;;;;;;;4.90;1.27;;;21.80;93.60;;;;;;5071868;28;20209;-58
2022/07/10 07:37:36;;;;;;;3.97;1.40;;;21.70;94.10;;;;;;5071872;28;20216;-58
2022/07/10 07:40:04;;;;;;;3.20;1.13;;;22.30;94.10;;;;;;5076854;28;20208;-58
2022/07/10 07:42:31;;;;;;;3.38;1.30;;;23.00;93.20;;;;;;5076632;28;20240;-58
2022/07/10 07:44:58;;;;;;;3.72;1.15;;;23.30;92.40;;;;;;5076927;28;20216;-58
2022/07/10 07:47:24;;;;;;;3.45;1.30;;;23.30;92.80;;;;;;5076942;28;20415;-58
2022/07/10 07:49:53;;;;;;;3.03;1.20;;;23.00;93.30;;;;;;5077266;28;20232;-58
2022/07/10 07:52:19;;;;;;;3.60;1.80;;;22.40;94.40;;;;;;5080171;28;20228;-58
2022/07/10 07:54:46;;;;;;;2.83;1.40;;;22.20;94.90;;;;;;5080299;28;20209;-59
2022/07/10 07:57:13;;;;;;;4.50;1.45;;;22.00;94.70;;;;;;5076456;28;20205;-59
2022/07/10 07:59:40;;;;;;;2.55;1.02;;;21.90;95.10;;;;;;5076059;28;20212;-59
2022/07/10 08:02:07;;;;;;;5.88;1.35;;;21.70;96.00;;;;;;5075915;28;20274;-59
2022/07/10 08:04:34;;;;;;;2.13;0.93;;;21.60;96.40;;;;;;5076249;28;20197;-59
2022/07/10 08:07:02;;;;;;;2.38;1.20;;;21.50;95.70;;;;;;5076156;28;20212;-59
2022/07/10 08:09:29;;;;;;;4.68;1.45;;;21.50;95.80;;;;;;5076247;28;20320;-59
2022/07/10 08:11:55;;;;;;;2.10;1.08;;;21.70;95.00;;;;;;5075675;28;20259;-59
2022/07/10 08:14:22;;;;;;;2.08;1.02;;;21.50;93.70;;;;;;5076041;28;20213;-58
2022/07/10 08:16:50;;;;;;;2.97;1.10;;;21.50;94.50;;;;;;5075574;28;20209;-59
2022/07/10 08:19:17;;;;;;;2.78;1.30;;;21.70;94.10;;;;;;5075726;28;20227;-59
2022/07/10 08:21:44;;;;;;;3.22;1.20;;;21.90;93.30;;;;;;5074808;28;20719;-59
2022/07/10 08:24:12;;;;;;;2.47;0.80;;;22.10;93.00;;;;;;5075605;28;20274;-59
2022/07/10 08:26:39;;;;;;;2.13;1.23;;;22.50;92.30;;;;;;5075164;28;20208;-59
2022/07/10 08:29:05;;;;;;;5.60;1.38;;;22.90;92.10;;;;;;5075138;28;20266;-60
2022/07/10 08:31:33;;;;;;;3.05;1.23;;;23.40;90.80;;;;;;5075868;28;20213;-59
2022/07/10 08:34:00;;;;;;;3.65;1.25;;;24.00;90.30;;;;;;5075501;28;20299;-59
2022/07/10 08:36:27;;;;;;;2.47;0.93;;;25.50;86.30;;;;;;5076322;28;20204;-59
2022/07/10 08:38:55;;;;;;;2.47;1.10;;;25.80;84.20;;;;;;5075609;28;20653;-60
2022/07/10 08:41:26;;;;;;;3.42;1.00;;;25.70;83.20;;;;;;5075382;28;20568;-59
2022/07/10 08:43:53;;;;;;;3.72;1.17;;;25.80;81.90;;;;;;5075390;28;20209;-58
2022/07/10 08:46:20;;;;;;;4.15;1.10;;;25.80;80.90;;;;;;5075277;28;20224;-59
2022/07/10 08:48:49;;;;;;;2.22;0.85;;;26.40;77.00;;;;;;5075058;28;20581;-59
2022/07/10 08:51:23;;;;;;;2.85;1.10;;;27.50;74.30;;;;;;5074289;28;20213;-59
2022/07/10 08:53:52;;;;;;;2.33;0.98;;;28.50;70.20;;;;;;5075004;28;20227;-59
2022/07/10 08:56:18;;;;;;;3.08;1.08;;;27.80;70.80;;;;;;5074631;28;20217;-59
2022/07/10 08:58:48;;;;;;;2.72;1.05;;;26.60;73.60;;;;;;5075401;28;20205;-59
2022/07/10 09:01:14;;;;;;;4.32;1.05;;;25.60;75.80;;;;;;5074677;28;20228;-59
2022/07/10 09:03:41;;;;;;;2.10;0.82;;;24.90;78.10;;;;;;5074518;28;20224;-59
2022/07/10 09:06:08;;;;;;;1.67;1.10;;;24.30;80.10;;;;;;5074261;28;20667;-59
2022/07/10 09:08:36;;;;;;;3.13;0.90;;;24.00;80.70;;;;;;5074643;28;20224;-59
2022/07/10 09:11:14;;;;;;;3.38;1.50;;;23.80;82.60;;;;;;5074109;28;20212;-59
2022/07/10 09:13:51;;;;;;;2.80;0.93;;;24.10;82.10;;;;;;5074542;28;20229;-59
2022/07/10 09:16:25;;;;;;;3.53;1.15;;;24.30;81.10;;;;;;5075101;28;20241;-59
2022/07/10 09:18:51;;;;;;;3.53;1.00;;;24.20;81.50;;;;;;5074696;28;20680;-59
2022/07/10 09:21:18;;;;;;;3.17;1.40;;;23.80;81.20;;;;;;5074010;28;20692;-58
2022/07/10 09:23:45;;;;;;;3.25;1.23;;;23.50;82.20;;;;;;5073808;28;20228;-59
2022/07/10 09:26:12;;;;;;;3.88;1.30;;;23.70;80.80;;;;;;5074058;28;20205;-59
2022/07/10 09:28:39;;;;;;;3.13;1.00;;;23.50;80.90;;;;;;5074230;28;20224;-59
2022/07/10 09:31:07;;;;;;;3.25;1.33;;;23.40;82.00;;;;;;5073727;28;20205;-59
2022/07/10 09:33:35;;;;;;;3.53;1.23;;;23.50;80.70;;;;;;5073996;28;20232;-59
2022/07/10 09:36:08;;;;;;;2.85;1.20;;;23.60;82.20;;;;;;5074342;28;20212;-58
2022/07/10 09:38:56;;;;;;;3.63;1.10;;;23.90;79.60;;;;;;5074331;28;20208;-59
2022/07/10 09:41:26;;;;;;;3.38;1.25;;;24.20;80.40;;;;;;5075051;28;20669;-59
2022/07/10 09:43:55;;;;;;;2.72;0.90;;;24.20;78.00;;;;;;5075956;28;20649;-60
2022/07/10 09:46:25;;;;;;;4.22;1.20;;;24.20;77.20;;;;;;5075641;28;20205;-60
2022/07/10 09:49:06;;;;;;;2.08;1.00;;;24.00;76.60;;;;;;5074284;28;20227;-60
2022/07/10 09:51:34;;;;;;;1.63;0.73;;;24.10;77.60;;;;;;5073835;28;20209;-60
2022/07/10 09:54:05;;;;;;;2.15;0.90;;;24.20;76.30;;;;;;5074593;28;20216;-61
2022/07/10 09:56:37;;;;;;;2.33;1.13;;;24.20;75.20;;;;;;5071604;28;20673;-65
2022/07/10 09:59:09;;;;;;;3.03;1.05;;;24.10;76.50;;;;;;5073917;28;20620;-60
2022/07/10 10:01:38;;;;;;;2.35;1.02;;;23.90;77.80;;;;;;5071368;28;20213;-59
2022/07/10 10:04:05;;;;;;;1.92;0.73;;;23.80;76.80;;;;;;5072170;28;20254;-59
2022/07/10 10:06:34;;;;;;;2.58;0.90;;;23.70;77.50;;;;;;5072272;28;20212;-59
2022/07/10 10:09:10;;;;;;;2.13;1.05;;;23.70;77.30;;;;;;5071798;28;20217;-58
2022/07/10 10:11:38;;;;;;;2.30;0.85;;;23.80;76.50;;;;;;5071809;28;20201;-59
2022/07/10 10:14:07;;;;;;;2.33;1.15;;;23.80;75.40;;;;;;5072372;28;20215;-59
2022/07/10 10:16:35;;;;;;;4.78;1.33;;;23.80;75.40;;;;;;5072225;28;20193;-58
2022/07/10 10:21:55;;;;;;;3.45;1.25;;;24.70;74.20;;;;;;5032637;28;20309;-60
2022/07/10 10:24:23;;;;;;;2.70;1.02;;;25.20;72.60;;;;;;5071712;28;20270;-59
2022/07/10 10:26:50;;;;;;;3.13;0.98;;;25.20;72.00;;;;;;5071821;28;20212;-60
2022/07/10 10:29:17;;;;;;;5.63;1.00;;;25.00;72.00;;;;;;5071729;28;20243;-59
2022/07/10 10:31:45;;;;;;;3.85;1.00;;;24.50;71.80;;;;;;5071495;28;20247;-59
2022/07/10 10:34:16;;;;;;;3.83;1.05;;;23.90;75.30;;;;;;5071796;28;20677;-59
2022/07/10 10:36:48;;;;;;;4.47;1.08;;;23.20;74.60;;;;;;5071646;28;20764;-59
2022/07/10 10:39:17;;;;;;;2.35;0.85;;;22.90;76.70;;;;;;5072029;28;20235;-59
2022/07/10 10:41:50;;;;;;;3.67;1.30;;;22.90;77.20;;;;;;5072107;28;20351;-58
2022/07/10 10:44:32;;;;;;;2.45;1.00;;;22.80;76.00;;;;;;5071910;28;20228;-61
2022/07/10 10:47:05;;;;;;;2.78;0.95;;;22.70;76.80;;;;;;5071847;28;20256;-59
2022/07/10 10:49:58;;;;;;;2.70;0.90;;;22.50;77.40;;;;;;5071614;28;20257;-60
2022/07/10 10:52:26;;;;;;;5.40;1.17;;;22.30;77.60;;;;;;5071636;28;20235;-59
2022/07/10 10:55:07;;;;;;;3.03;1.08;;;22.10;78.20;;;;;;5071565;28;20323;-60
2022/07/10 10:57:52;;;;;;;3.00;1.27;;;22.10;78.30;;;;;;5071609;28;20260;-59
2022/07/10 11:00:37;;;;;;;2.92;1.00;;;22.40;78.00;;;;;;5071175;28;20241;-58
2022/07/10 11:03:24;;;;;;;3.10;1.13;;;22.60;77.90;;;;;;5071434;28;20221;-58
2022/07/10 11:05:52;;;;;;;2.55;0.90;;;22.90;76.80;;;;;;5071441;28;20204;-58
2022/07/10 11:08:40;;;;;;;3.60;1.60;;;23.20;76.40;;;;;;5070651;28;20590;-58
2022/07/10 11:11:39;;;;;;;2.60;1.10;;;23.50;75.70;;;;;;5071299;28;20320;-59
2022/07/10 11:14:07;;;;;;;4.28;1.80;;;23.50;74.50;;;;;;5071110;28;20205;-58
2022/07/10 11:16:34;;;;;;;2.95;1.50;;;23.50;74.30;;;;;;5071335;28;20205;-59
2022/07/10 11:19:02;;;;;;;2.92;1.00;;;23.40;74.70;;;;;;5071300;28;20212;-59
2022/07/10 11:21:48;;;;;;;2.47;1.00;;;23.30;75.10;;;;;;5071174;28;20445;-59
2022/07/10 11:24:33;;;;;;;2.55;0.80;;;23.40;76.40;;;;;;5072152;28;20767;-59
2022/07/10 11:27:16;;;;;;;2.75;0.73;;;23.60;75.10;;;;;;5072168;28;20213;-59
2022/07/10 11:29:47;;;;;;;2.50;1.17;;;23.50;75.40;;;;;;5071991;28;20224;-59
2022/07/10 11:32:17;;;;;;;1.60;0.98;;;23.10;76.20;;;;;;5071861;28;20229;-59
2022/07/10 11:34:44;;;;;;;3.25;1.05;;;22.80;77.40;;;;;;5072238;28;20208;-59
2022/07/10 11:37:16;;;;;;;4.70;1.15;;;22.70;77.40;;;;;;5071959;28;20247;-59
2022/07/10 11:39:44;;;;;;;2.10;1.30;;;22.90;77.60;;;;;;5072150;28;20200;-60
2022/07/10 11:42:10;;;;;;;4.75;1.63;;;23.00;77.70;;;;;;5071610;28;20294;-59
2022/07/10 11:44:37;;;;;;;4.03;1.13;;;22.90;77.70;;;;;;5071820;28;20209;-59
2022/07/10 11:47:06;;;;;;;2.60;1.00;;;22.80;77.90;;;;;;5071840;28;20212;-59
2022/07/10 11:49:34;;;;;;;3.22;0.90;;;22.70;77.50;;;;;;5071691;28;20228;-58
2022/07/10 11:52:03;;;;;;;4.25;1.27;;;22.20;78.80;;;;;;5072248;28;20221;-59
2022/07/10 11:54:31;;;;;;;2.42;1.15;;;22.00;80.60;;;;;;5072169;28;20278;-59
2022/07/10 11:57:08;;;;;;;3.13;1.35;;;22.20;79.20;;;;;;5072090;28;20682;-59
2022/07/10 11:59:35;;;;;;;1.55;0.93;;;22.50;78.70;;;;;;5072019;28;20213;-59
2022/07/10 12:02:01;;;;;;;5.88;1.27;;;22.90;77.40;;;;;;5071749;28;20220;-58
2022/07/10 12:04:31;;;;;;;4.07;1.60;;;23.00;76.60;;;;;;5071935;28;20673;-59
2022/07/10 12:06:58;;;;;;;4.00;1.00;;;22.90;76.80;;;;;;5072387;28;20209;-59
2022/07/10 12:09:25;;;;;;;3.28;1.00;;;23.10;77.70;;;;;;5073207;28;20228;-59
2022/07/10 12:12:01;;;;;;;2.92;0.95;;;22.90;76.70;;;;;;5072305;28;20744;-59
2022/07/10 12:14:28;;;;;;;3.13;1.00;;;22.80;76.60;;;;;;5072524;28;20208;-59
2022/07/10 12:16:56;;;;;;;3.17;1.17;;;22.90;77.10;;;;;;5071803;28;20672;-60
2022/07/10 12:19:25;;;;;;;0.65;0.50;;;23.20;76.00;;;;;;5072129;28;20211;-60
2022/07/10 12:21:52;;;;;;;3.88;0.90;;;23.60;75.00;;;;;;5072277;28;20220;-59
2022/07/10 12:24:20;;;;;;;1.20;0.63;;;23.90;74.40;;;;;;5072519;28;20209;-58
2022/07/10 12:26:48;;;;;;;5.95;1.10;;;24.00;73.30;;;;;;5074778;28;20295;-59
2022/07/10 12:29:22;;;;;;;2.72;0.93;;;23.80;73.10;;;;;;5075443;28;20640;-58
2022/07/10 12:31:50;;;;;;;2.03;0.90;;;23.70;73.70;;;;;;5074808;28;20270;-59
2022/07/10 12:34:17;;;;;;;2.03;0.88;;;23.10;74.90;;;;;;5075132;28;20205;-58
2022/07/10 12:36:45;;;;;;;3.15;1.00;;;22.90;75.30;;;;;;5074961;28;20199;-58
2022/07/10 12:39:13;;;;;;;3.35;1.08;;;23.10;75.70;;;;;;5074739;28;20204;-59
2022/07/10 12:42:00;;;;;;;3.58;1.10;;;23.10;75.60;;;;;;5074838;28;20216;-59
2022/07/10 12:44:37;;;;;;;1.30;0.88;;;23.20;74.60;;;;;;5074680;28;20678;-58
2022/07/10 12:47:08;;;;;;;2.88;0.90;;;22.90;74.30;;;;;;5075011;28;20249;-59
2022/07/10 12:49:49;;;;;;;1.33;0.80;;;22.70;74.10;;;;;;5075097;28;20221;-58
2022/07/10 12:52:21;;;;;;;3.55;1.00;;;22.90;74.60;;;;;;5075073;28;20229;-59
2022/07/10 12:54:47;;;;;;;5.50;1.00;;;23.10;74.00;;;;;;5075168;28;20204;-60
2022/07/10 12:57:14;;;;;;;1.42;0.68;;;23.30;74.20;;;;;;5074937;28;20263;-58
2022/07/10 12:59:43;;;;;;;1.77;0.75;;;23.40;72.80;;;;;;5074617;28;20215;-59
2022/07/10 13:02:18;;;;;;;2.45;0.95;;;23.10;72.80;;;;;;5074315;28;20704;-58